Terminal Aerodrome Forecast
Issued by NWS Paducah, KY

Home | Current Version | Previous Version | Text Only | Print | Product List | Glossary On
Versions: 1 2 3 4 5 6 7 8 9 10 11 12 13 14 15 16 17
000
FTUS43 KPAH 291124
TAFEVV
TAF
KEVV 291124Z 2912/3012 23003KT P6SM VCTS SCT040CB SCT250
      TEMPO 2912/2913 3SM TSRA BR BKN025CB
     FM291400 25005KT P6SM FEW035
     FM291800 29006KT P6SM SCT040
     FM292300 33007KT P6SM VCTS SCT040CB BKN100
     FM300200 35004KT P6SM SCT100=

USA.gov is the U.S. government's official web portal to all federal, state and local government web resources and services.